sensor_id;sensor_type;location;lat;lon;timestamp;P1;durP1;ratioP1;P2;durP2;ratioP2
3004;SDS011;1512;51.486;6.610;2022-08-14T00:01:45;9.33;;;6.37;;
3004;SDS011;1512;51.486;6.610;2022-08-14T00:05:55;6.67;;;6.07;;
3004;SDS011;1512;51.486;6.610;2022-08-14T00:10:07;7.30;;;6.27;;
3004;SDS011;1512;51.486;6.610;2022-08-14T00:14:19;7.73;;;6.97;;
3004;SDS011;1512;51.486;6.610;2022-08-14T00:18:30;6.57;;;5.90;;
3004;SDS011;1512;51.486;6.610;2022-08-14T00:22:40;7.23;;;6.53;;
3004;SDS011;1512;51.486;6.610;2022-08-14T00:26:50;7.20;;;6.50;;
3004;SDS011;1512;51.486;6.610;2022-08-14T00:31:00;7.33;;;6.50;;
3004;SDS011;1512;51.486;6.610;2022-08-14T00:35:10;6.67;;;6.07;;
3004;SDS011;1512;51.486;6.610;2022-08-14T00:39:20;7.40;;;6.70;;
3004;SDS011;1512;51.486;6.610;2022-08-14T00:43:35;6.57;;;5.97;;
3004;SDS011;1512;51.486;6.610;2022-08-14T00:56:41;7.23;;;6.53;;
3004;SDS011;1512;51.486;6.610;2022-08-14T01:00:51;7.07;;;6.47;;
3004;SDS011;1512;51.486;6.610;2022-08-14T01:05:02;6.20;;;5.60;;
3004;SDS011;1512;51.486;6.610;2022-08-14T01:09:12;5.83;;;5.30;;
3004;SDS011;1512;51.486;6.610;2022-08-14T01:13:27;5.90;;;5.30;;
3004;SDS011;1512;51.486;6.610;2022-08-14T01:17:35;6.70;;;6.10;;
3004;SDS011;1512;51.486;6.610;2022-08-14T01:22:01;6.90;;;6.20;;
3004;SDS011;1512;51.486;6.610;2022-08-14T01:26:14;7.57;;;6.40;;
3004;SDS011;1512;51.486;6.610;2022-08-14T01:30:27;6.17;;;5.60;;
3004;SDS011;1512;51.486;6.610;2022-08-14T01:34:39;7.87;;;6.47;;
3004;SDS011;1512;51.486;6.610;2022-08-14T01:38:50;7.27;;;6.63;;
3004;SDS011;1512;51.486;6.610;2022-08-14T01:43:06;6.97;;;6.28;;
3004;SDS011;1512;51.486;6.610;2022-08-14T01:47:20;7.00;;;6.40;;
3004;SDS011;1512;51.486;6.610;2022-08-14T01:51:29;6.60;;;6.00;;
3004;SDS011;1512;51.486;6.610;2022-08-14T01:55:39;7.07;;;6.13;;
3004;SDS011;1512;51.486;6.610;2022-08-14T01:59:48;8.37;;;7.50;;
3004;SDS011;1512;51.486;6.610;2022-08-14T02:03:56;7.87;;;6.70;;
3004;SDS011;1512;51.486;6.610;2022-08-14T02:08:06;12.53;;;7.73;;
3004;SDS011;1512;51.486;6.610;2022-08-14T02:12:19;8.13;;;7.07;;
3004;SDS011;1512;51.486;6.610;2022-08-14T02:16:36;8.80;;;6.60;;
3004;SDS011;1512;51.486;6.610;2022-08-14T02:20:43;8.50;;;7.63;;
3004;SDS011;1512;51.486;6.610;2022-08-14T02:24:54;8.83;;;6.93;;
3004;SDS011;1512;51.486;6.610;2022-08-14T02:29:05;9.10;;;6.90;;
3004;SDS011;1512;51.486;6.610;2022-08-14T02:33:15;9.13;;;7.50;;
3004;SDS011;1512;51.486;6.610;2022-08-14T02:37:25;8.53;;;7.63;;
3004;SDS011;1512;51.486;6.610;2022-08-14T02:41:36;8.53;;;7.63;;
3004;SDS011;1512;51.486;6.610;2022-08-14T02:45:47;8.47;;;7.40;;
3004;SDS011;1512;51.486;6.610;2022-08-14T02:49:56;9.23;;;7.73;;
3004;SDS011;1512;51.486;6.610;2022-08-14T02:54:06;10.77;;;7.60;;
3004;SDS011;1512;51.486;6.610;2022-08-14T02:58:18;8.53;;;7.53;;
3004;SDS011;1512;51.486;6.610;2022-08-14T03:02:30;12.33;;;8.20;;
3004;SDS011;1512;51.486;6.610;2022-08-14T03:06:42;7.40;;;6.77;;
3004;SDS011;1512;51.486;6.610;2022-08-14T03:10:52;10.93;;;8.27;;
3004;SDS011;1512;51.486;6.610;2022-08-14T03:15:04;11.00;;;7.87;;
3004;SDS011;1512;51.486;6.610;2022-08-14T03:19:16;12.83;;;7.77;;
3004;SDS011;1512;51.486;6.610;2022-08-14T03:23:25;8.23;;;7.43;;
3004;SDS011;1512;51.486;6.610;2022-08-14T03:27:34;11.37;;;8.00;;
3004;SDS011;1512;51.486;6.610;2022-08-14T03:31:45;9.30;;;8.30;;
3004;SDS011;1512;51.486;6.610;2022-08-14T03:35:56;15.03;;;8.17;;
3004;SDS011;1512;51.486;6.610;2022-08-14T03:40:07;9.67;;;7.47;;
3004;SDS011;1512;51.486;6.610;2022-08-14T03:44:19;10.17;;;7.30;;
3004;SDS011;1512;51.486;6.610;2022-08-14T03:48:30;16.23;;;7.73;;
3004;SDS011;1512;51.486;6.610;2022-08-14T03:52:40;9.90;;;8.80;;
3004;SDS011;1512;51.486;6.610;2022-08-14T03:56:51;11.67;;;8.83;;
3004;SDS011;1512;51.486;6.610;2022-08-14T04:01:00;9.37;;;7.50;;
3004;SDS011;1512;51.486;6.610;2022-08-14T04:05:11;11.13;;;8.67;;
3004;SDS011;1512;51.486;6.610;2022-08-14T04:09:28;8.27;;;7.10;;
3004;SDS011;1512;51.486;6.610;2022-08-14T04:13:37;8.68;;;7.70;;
3004;SDS011;1512;51.486;6.610;2022-08-14T04:17:48;9.27;;;8.13;;
3004;SDS011;1512;51.486;6.610;2022-08-14T04:21:58;8.93;;;8.03;;
3004;SDS011;1512;51.486;6.610;2022-08-14T04:26:10;9.90;;;7.70;;
3004;SDS011;1512;51.486;6.610;2022-08-14T04:30:21;10.43;;;7.63;;
3004;SDS011;1512;51.486;6.610;2022-08-14T04:34:34;8.97;;;8.07;;
3004;SDS011;1512;51.486;6.610;2022-08-14T04:38:48;8.53;;;7.67;;
3004;SDS011;1512;51.486;6.610;2022-08-14T04:43:16;9.07;;;7.50;;
3004;SDS011;1512;51.486;6.610;2022-08-14T04:47:45;9.63;;;8.73;;
3004;SDS011;1512;51.486;6.610;2022-08-14T04:52:13;9.60;;;7.80;;
3004;SDS011;1512;51.486;6.610;2022-08-14T04:56:24;11.17;;;8.50;;
3004;SDS011;1512;51.486;6.610;2022-08-14T05:00:35;9.70;;;8.20;;
3004;SDS011;1512;51.486;6.610;2022-08-14T05:04:47;9.07;;;8.17;;
3004;SDS011;1512;51.486;6.610;2022-08-14T05:13:28;10.50;;;7.90;;
3004;SDS011;1512;51.486;6.610;2022-08-14T05:17:40;11.17;;;8.10;;
3004;SDS011;1512;51.486;6.610;2022-08-14T05:21:51;9.47;;;8.47;;
3004;SDS011;1512;51.486;6.610;2022-08-14T05:26:03;8.57;;;7.63;;
3004;SDS011;1512;51.486;6.610;2022-08-14T05:30:14;9.60;;;8.03;;
3004;SDS011;1512;51.486;6.610;2022-08-14T05:34:24;9.80;;;7.87;;
3004;SDS011;1512;51.486;6.610;2022-08-14T05:38:37;10.40;;;8.60;;
3004;SDS011;1512;51.486;6.610;2022-08-14T05:42:49;10.47;;;8.80;;
3004;SDS011;1512;51.486;6.610;2022-08-14T05:46:58;9.43;;;8.00;;
3004;SDS011;1512;51.486;6.610;2022-08-14T05:51:09;10.00;;;8.37;;
3004;SDS011;1512;51.486;6.610;2022-08-14T05:55:20;7.93;;;7.23;;
3004;SDS011;1512;51.486;6.610;2022-08-14T05:59:29;9.40;;;8.07;;
3004;SDS011;1512;51.486;6.610;2022-08-14T06:03:48;9.03;;;8.13;;
3004;SDS011;1512;51.486;6.610;2022-08-14T06:07:58;13.37;;;8.50;;
3004;SDS011;1512;51.486;6.610;2022-08-14T06:12:09;9.27;;;8.37;;
3004;SDS011;1512;51.486;6.610;2022-08-14T06:16:19;9.43;;;8.17;;
3004;SDS011;1512;51.486;6.610;2022-08-14T06:20:30;12.03;;;8.27;;
3004;SDS011;1512;51.486;6.610;2022-08-14T06:24:40;8.47;;;7.67;;
3004;SDS011;1512;51.486;6.610;2022-08-14T06:28:50;11.20;;;8.90;;
3004;SDS011;1512;51.486;6.610;2022-08-14T06:32:58;11.03;;;8.83;;
3004;SDS011;1512;51.486;6.610;2022-08-14T06:37:09;11.37;;;8.37;;
3004;SDS011;1512;51.486;6.610;2022-08-14T06:41:18;8.57;;;7.77;;
3004;SDS011;1512;51.486;6.610;2022-08-14T06:45:28;9.47;;;8.23;;
3004;SDS011;1512;51.486;6.610;2022-08-14T06:49:39;8.70;;;7.80;;
3004;SDS011;1512;51.486;6.610;2022-08-14T06:53:50;9.03;;;7.87;;
3004;SDS011;1512;51.486;6.610;2022-08-14T06:58:00;10.90;;;9.23;;
3004;SDS011;1512;51.486;6.610;2022-08-14T07:02:09;11.03;;;7.93;;
3004;SDS011;1512;51.486;6.610;2022-08-14T07:06:36;9.53;;;8.70;;
3004;SDS011;1512;51.486;6.610;2022-08-14T07:10:48;10.03;;;8.43;;
3004;SDS011;1512;51.486;6.610;2022-08-14T07:15:00;10.10;;;7.97;;
3004;SDS011;1512;51.486;6.610;2022-08-14T07:19:09;9.67;;;8.77;;
3004;SDS011;1512;51.486;6.610;2022-08-14T07:23:18;9.83;;;7.93;;
3004;SDS011;1512;51.486;6.610;2022-08-14T07:31:58;9.90;;;8.90;;
3004;SDS011;1512;51.486;6.610;2022-08-14T07:36:08;10.00;;;9.00;;
3004;SDS011;1512;51.486;6.610;2022-08-14T07:40:19;8.93;;;8.07;;
3004;SDS011;1512;51.486;6.610;2022-08-14T07:44:30;8.83;;;7.93;;
3004;SDS011;1512;51.486;6.610;2022-08-14T07:48:40;8.40;;;7.60;;
3004;SDS011;1512;51.486;6.610;2022-08-14T07:52:51;8.70;;;7.87;;
3004;SDS011;1512;51.486;6.610;2022-08-14T07:57:01;9.07;;;8.27;;
3004;SDS011;1512;51.486;6.610;2022-08-14T08:01:12;10.30;;;9.20;;
3004;SDS011;1512;51.486;6.610;2022-08-14T08:05:23;10.10;;;9.10;;
3004;SDS011;1512;51.486;6.610;2022-08-14T08:09:32;9.50;;;7.47;;
3004;SDS011;1512;51.486;6.610;2022-08-14T08:13:46;8.60;;;7.80;;
3004;SDS011;1512;51.486;6.610;2022-08-14T08:17:58;9.10;;;8.20;;
3004;SDS011;1512;51.486;6.610;2022-08-14T08:22:10;10.70;;;9.07;;
3004;SDS011;1512;51.486;6.610;2022-08-14T08:26:18;9.47;;;7.83;;
3004;SDS011;1512;51.486;6.610;2022-08-14T08:30:28;8.83;;;8.00;;
3004;SDS011;1512;51.486;6.610;2022-08-14T08:34:46;9.10;;;7.30;;
3004;SDS011;1512;51.486;6.610;2022-08-14T08:38:52;8.70;;;7.80;;
3004;SDS011;1512;51.486;6.610;2022-08-14T08:43:07;9.17;;;7.70;;
3004;SDS011;1512;51.486;6.610;2022-08-14T08:47:39;8.13;;;7.33;;
3004;SDS011;1512;51.486;6.610;2022-08-14T08:51:50;8.20;;;6.85;;
3004;SDS011;1512;51.486;6.610;2022-08-14T08:56:02;9.67;;;7.87;;
3004;SDS011;1512;51.486;6.610;2022-08-14T09:04:44;8.67;;;7.37;;
3004;SDS011;1512;51.486;6.610;2022-08-14T09:08:55;7.90;;;7.00;;
3004;SDS011;1512;51.486;6.610;2022-08-14T09:13:03;7.83;;;7.13;;
3004;SDS011;1512;51.486;6.610;2022-08-14T09:17:14;9.53;;;7.83;;
3004;SDS011;1512;51.486;6.610;2022-08-14T09:21:23;8.27;;;7.47;;
3004;SDS011;1512;51.486;6.610;2022-08-14T09:25:33;9.00;;;8.20;;
3004;SDS011;1512;51.486;6.610;2022-08-14T09:29:45;9.00;;;8.00;;
3004;SDS011;1512;51.486;6.610;2022-08-14T09:38:17;9.13;;;7.80;;
3004;SDS011;1512;51.486;6.610;2022-08-14T09:42:34;8.80;;;8.00;;
3004;SDS011;1512;51.486;6.610;2022-08-14T09:46:53;8.77;;;7.90;;
3004;SDS011;1512;51.486;6.610;2022-08-14T09:51:03;9.63;;;8.63;;
3004;SDS011;1512;51.486;6.610;2022-08-14T09:55:17;8.00;;;7.30;;
3004;SDS011;1512;51.486;6.610;2022-08-14T09:59:37;8.20;;;7.40;;
3004;SDS011;1512;51.486;6.610;2022-08-14T10:03:47;10.60;;;7.87;;
3004;SDS011;1512;51.486;6.610;2022-08-14T10:07:58;8.23;;;7.50;;
3004;SDS011;1512;51.486;6.610;2022-08-14T10:12:08;8.80;;;7.20;;
3004;SDS011;1512;51.486;6.610;2022-08-14T10:16:24;8.77;;;7.37;;
3004;SDS011;1512;51.486;6.610;2022-08-14T10:20:50;7.73;;;6.93;;
3004;SDS011;1512;51.486;6.610;2022-08-14T10:29:31;8.73;;;6.80;;
3004;SDS011;1512;51.486;6.610;2022-08-14T10:38:25;7.27;;;6.57;;
3004;SDS011;1512;51.486;6.610;2022-08-14T10:42:39;6.67;;;6.07;;
3004;SDS011;1512;51.486;6.610;2022-08-14T10:46:50;6.50;;;5.90;;
3004;SDS011;1512;51.486;6.610;2022-08-14T10:51:04;7.20;;;6.40;;
3004;SDS011;1512;51.486;6.610;2022-08-14T10:55:15;6.27;;;5.67;;
3004;SDS011;1512;51.486;6.610;2022-08-14T10:59:27;7.07;;;6.47;;
3004;SDS011;1512;51.486;6.610;2022-08-14T11:03:39;5.97;;;5.47;;
3004;SDS011;1512;51.486;6.610;2022-08-14T11:12:07;7.70;;;6.90;;
3004;SDS011;1512;51.486;6.610;2022-08-14T11:16:17;8.07;;;6.73;;
3004;SDS011;1512;51.486;6.610;2022-08-14T11:20:28;7.00;;;6.30;;
3004;SDS011;1512;51.486;6.610;2022-08-14T11:24:38;6.70;;;5.77;;
3004;SDS011;1512;51.486;6.610;2022-08-14T11:28:51;6.95;;;6.25;;
3004;SDS011;1512;51.486;6.610;2022-08-14T11:33:03;7.13;;;6.43;;
3004;SDS011;1512;51.486;6.610;2022-08-14T11:37:14;6.57;;;5.97;;
3004;SDS011;1512;51.486;6.610;2022-08-14T11:41:25;6.30;;;5.70;;
3004;SDS011;1512;51.486;6.610;2022-08-14T11:45:34;6.60;;;6.00;;
3004;SDS011;1512;51.486;6.610;2022-08-14T11:49:45;7.07;;;6.47;;
3004;SDS011;1512;51.486;6.610;2022-08-14T11:54:00;7.20;;;6.47;;
3004;SDS011;1512;51.486;6.610;2022-08-14T11:58:11;6.40;;;5.80;;
3004;SDS011;1512;51.486;6.610;2022-08-14T12:02:23;6.70;;;6.00;;
3004;SDS011;1512;51.486;6.610;2022-08-14T12:06:42;7.20;;;6.50;;
3004;SDS011;1512;51.486;6.610;2022-08-14T12:10:59;7.30;;;6.60;;
3004;SDS011;1512;51.486;6.610;2022-08-14T12:15:08;6.40;;;5.90;;
3004;SDS011;1512;51.486;6.610;2022-08-14T12:19:18;7.00;;;6.30;;
3004;SDS011;1512;51.486;6.610;2022-08-14T12:23:27;6.93;;;6.30;;
3004;SDS011;1512;51.486;6.610;2022-08-14T12:27:46;6.53;;;5.93;;
3004;SDS011;1512;51.486;6.610;2022-08-14T12:31:58;6.87;;;6.27;;
3004;SDS011;1512;51.486;6.610;2022-08-14T12:36:17;7.20;;;6.60;;
3004;SDS011;1512;51.486;6.610;2022-08-14T12:40:25;8.00;;;7.07;;
3004;SDS011;1512;51.486;6.610;2022-08-14T12:44:36;6.80;;;6.20;;
3004;SDS011;1512;51.486;6.610;2022-08-14T12:48:48;7.37;;;6.67;;
3004;SDS011;1512;51.486;6.610;2022-08-14T12:52:57;6.97;;;6.20;;
3004;SDS011;1512;51.486;6.610;2022-08-14T12:57:09;7.27;;;6.67;;
3004;SDS011;1512;51.486;6.610;2022-08-14T13:01:22;7.53;;;6.83;;
3004;SDS011;1512;51.486;6.610;2022-08-14T13:05:33;6.80;;;6.20;;
3004;SDS011;1512;51.486;6.610;2022-08-14T13:09:45;7.40;;;6.70;;
3004;SDS011;1512;51.486;6.610;2022-08-14T13:13:55;7.27;;;6.60;;
3004;SDS011;1512;51.486;6.610;2022-08-14T13:18:06;6.37;;;5.87;;
3004;SDS011;1512;51.486;6.610;2022-08-14T13:22:18;7.23;;;6.53;;
3004;SDS011;1512;51.486;6.610;2022-08-14T13:26:33;6.77;;;6.17;;
3004;SDS011;1512;51.486;6.610;2022-08-14T13:30:42;6.53;;;5.93;;
3004;SDS011;1512;51.486;6.610;2022-08-14T13:34:52;6.67;;;6.07;;
3004;SDS011;1512;51.486;6.610;2022-08-14T13:39:02;6.83;;;6.20;;
3004;SDS011;1512;51.486;6.610;2022-08-14T13:43:13;6.40;;;5.87;;
3004;SDS011;1512;51.486;6.610;2022-08-14T13:47:23;6.80;;;6.10;;
3004;SDS011;1512;51.486;6.610;2022-08-14T13:51:40;7.23;;;6.63;;
3004;SDS011;1512;51.486;6.610;2022-08-14T13:55:54;6.70;;;6.13;;
3004;SDS011;1512;51.486;6.610;2022-08-14T14:00:06;6.40;;;5.80;;
3004;SDS011;1512;51.486;6.610;2022-08-14T14:04:18;7.00;;;6.30;;
3004;SDS011;1512;51.486;6.610;2022-08-14T14:08:34;6.90;;;6.40;;
3004;SDS011;1512;51.486;6.610;2022-08-14T14:12:47;6.40;;;5.80;;
3004;SDS011;1512;51.486;6.610;2022-08-14T14:16:58;5.93;;;5.43;;
3004;SDS011;1512;51.486;6.610;2022-08-14T14:21:07;6.67;;;5.30;;
3004;SDS011;1512;51.486;6.610;2022-08-14T14:25:17;6.40;;;5.80;;
3004;SDS011;1512;51.486;6.610;2022-08-14T14:29:29;6.47;;;5.87;;
3004;SDS011;1512;51.486;6.610;2022-08-14T14:33:41;6.67;;;6.07;;
3004;SDS011;1512;51.486;6.610;2022-08-14T14:37:53;6.65;;;5.80;;
3004;SDS011;1512;51.486;6.610;2022-08-14T14:42:03;7.20;;;6.50;;
3004;SDS011;1512;51.486;6.610;2022-08-14T14:46:15;9.63;;;6.13;;
3004;SDS011;1512;51.486;6.610;2022-08-14T14:50:25;8.15;;;6.65;;
3004;SDS011;1512;51.486;6.610;2022-08-14T14:54:34;6.17;;;5.53;;
3004;SDS011;1512;51.486;6.610;2022-08-14T14:58:45;6.80;;;6.20;;
3004;SDS011;1512;51.486;6.610;2022-08-14T15:02:53;6.00;;;5.40;;
3004;SDS011;1512;51.486;6.610;2022-08-14T15:07:05;6.80;;;6.10;;
3004;SDS011;1512;51.486;6.610;2022-08-14T15:11:14;8.37;;;6.10;;
3004;SDS011;1512;51.486;6.610;2022-08-14T15:15:22;6.77;;;5.80;;
3004;SDS011;1512;51.486;6.610;2022-08-14T15:24:03;5.53;;;5.03;;
3004;SDS011;1512;51.486;6.610;2022-08-14T15:28:13;5.50;;;5.00;;
3004;SDS011;1512;51.486;6.610;2022-08-14T15:32:24;7.47;;;6.00;;
3004;SDS011;1512;51.486;6.610;2022-08-14T15:36:34;6.10;;;5.50;;
3004;SDS011;1512;51.486;6.610;2022-08-14T15:40:44;6.90;;;5.57;;
3004;SDS011;1512;51.486;6.610;2022-08-14T15:44:54;5.30;;;4.90;;
3004;SDS011;1512;51.486;6.610;2022-08-14T15:49:05;6.23;;;5.63;;
3004;SDS011;1512;51.486;6.610;2022-08-14T15:53:14;6.27;;;5.73;;
3004;SDS011;1512;51.486;6.610;2022-08-14T15:57:23;6.20;;;5.60;;
3004;SDS011;1512;51.486;6.610;2022-08-14T16:01:33;7.07;;;6.37;;
3004;SDS011;1512;51.486;6.610;2022-08-14T16:05:43;5.60;;;5.00;;
3004;SDS011;1512;51.486;6.610;2022-08-14T16:09:52;5.07;;;4.67;;
3004;SDS011;1512;51.486;6.610;2022-08-14T16:14:03;5.40;;;4.90;;
3004;SDS011;1512;51.486;6.610;2022-08-14T16:18:13;6.50;;;5.90;;
3004;SDS011;1512;51.486;6.610;2022-08-14T16:22:24;8.00;;;6.00;;
3004;SDS011;1512;51.486;6.610;2022-08-14T16:26:34;6.70;;;5.70;;
3004;SDS011;1512;51.486;6.610;2022-08-14T16:30:45;6.40;;;5.80;;
3004;SDS011;1512;51.486;6.610;2022-08-14T16:34:58;6.23;;;5.63;;
3004;SDS011;1512;51.486;6.610;2022-08-14T16:39:07;5.77;;;5.27;;
3004;SDS011;1512;51.486;6.610;2022-08-14T16:43:17;6.40;;;5.80;;
3004;SDS011;1512;51.486;6.610;2022-08-14T16:47:28;7.10;;;6.40;;
3004;SDS011;1512;51.486;6.610;2022-08-14T16:51:39;6.17;;;5.57;;
3004;SDS011;1512;51.486;6.610;2022-08-14T17:00:26;6.17;;;5.47;;
3004;SDS011;1512;51.486;6.610;2022-08-14T17:04:39;6.50;;;5.90;;
3004;SDS011;1512;51.486;6.610;2022-08-14T17:08:50;6.10;;;5.50;;
3004;SDS011;1512;51.486;6.610;2022-08-14T17:13:17;7.10;;;6.40;;
3004;SDS011;1512;51.486;6.610;2022-08-14T17:21:50;6.57;;;5.67;;
3004;SDS011;1512;51.486;6.610;2022-08-14T17:25:59;8.20;;;5.93;;
3004;SDS011;1512;51.486;6.610;2022-08-14T17:30:08;6.40;;;5.80;;
3004;SDS011;1512;51.486;6.610;2022-08-14T17:34:20;6.80;;;5.80;;
3004;SDS011;1512;51.486;6.610;2022-08-14T17:38:31;5.70;;;5.20;;
3004;SDS011;1512;51.486;6.610;2022-08-14T17:46:59;9.53;;;8.07;;
3004;SDS011;1512;51.486;6.610;2022-08-14T17:51:10;9.20;;;8.30;;
3004;SDS011;1512;51.486;6.610;2022-08-14T17:55:19;8.40;;;7.60;;
3004;SDS011;1512;51.486;6.610;2022-08-14T17:59:31;9.53;;;7.40;;
3004;SDS011;1512;51.486;6.610;2022-08-14T18:03:43;8.53;;;7.67;;
3004;SDS011;1512;51.486;6.610;2022-08-14T18:07:56;8.70;;;7.67;;
3004;SDS011;1512;51.486;6.610;2022-08-14T18:12:07;7.30;;;6.60;;
3004;SDS011;1512;51.486;6.610;2022-08-14T18:16:19;7.13;;;6.53;;
3004;SDS011;1512;51.486;6.610;2022-08-14T18:20:28;6.80;;;6.17;;
3004;SDS011;1512;51.486;6.610;2022-08-14T18:24:39;7.77;;;7.07;;
3004;SDS011;1512;51.486;6.610;2022-08-14T18:28:48;7.53;;;6.83;;
3004;SDS011;1512;51.486;6.610;2022-08-14T18:32:58;7.73;;;7.03;;
3004;SDS011;1512;51.486;6.610;2022-08-14T18:37:18;8.00;;;6.50;;
3004;SDS011;1512;51.486;6.610;2022-08-14T18:41:26;7.43;;;6.73;;
3004;SDS011;1512;51.486;6.610;2022-08-14T18:45:58;7.17;;;6.47;;
3004;SDS011;1512;51.486;6.610;2022-08-14T18:54:06;8.33;;;7.50;;
3004;SDS011;1512;51.486;6.610;2022-08-14T18:58:17;7.27;;;6.50;;
3004;SDS011;1512;51.486;6.610;2022-08-14T19:06:43;7.10;;;6.40;;
3004;SDS011;1512;51.486;6.610;2022-08-14T19:10:58;7.03;;;6.33;;
3004;SDS011;1512;51.486;6.610;2022-08-14T19:15:10;6.40;;;5.50;;
3004;SDS011;1512;51.486;6.610;2022-08-14T19:19:24;7.70;;;6.17;;
3004;SDS011;1512;51.486;6.610;2022-08-14T19:23:36;6.93;;;6.33;;
3004;SDS011;1512;51.486;6.610;2022-08-14T19:27:52;6.67;;;5.97;;
3004;SDS011;1512;51.486;6.610;2022-08-14T19:32:02;6.17;;;5.57;;
3004;SDS011;1512;51.486;6.610;2022-08-14T19:36:13;6.97;;;6.27;;
3004;SDS011;1512;51.486;6.610;2022-08-14T19:40:31;6.40;;;5.80;;
3004;SDS011;1512;51.486;6.610;2022-08-14T19:44:43;6.70;;;6.10;;
3004;SDS011;1512;51.486;6.610;2022-08-14T19:48:54;8.40;;;6.80;;
3004;SDS011;1512;51.486;6.610;2022-08-14T19:53:04;8.40;;;6.47;;
3004;SDS011;1512;51.486;6.610;2022-08-14T19:57:20;6.90;;;6.20;;
3004;SDS011;1512;51.486;6.610;2022-08-14T20:01:34;6.90;;;6.27;;
3004;SDS011;1512;51.486;6.610;2022-08-14T20:05:44;6.17;;;5.57;;
3004;SDS011;1512;51.486;6.610;2022-08-14T20:09:55;7.43;;;5.33;;
3004;SDS011;1512;51.486;6.610;2022-08-14T20:14:06;6.93;;;6.20;;
3004;SDS011;1512;51.486;6.610;2022-08-14T20:18:23;6.03;;;5.43;;
3004;SDS011;1512;51.486;6.610;2022-08-14T20:22:35;6.40;;;5.80;;
3004;SDS011;1512;51.486;6.610;2022-08-14T20:27:13;6.47;;;5.83;;
3004;SDS011;1512;51.486;6.610;2022-08-14T20:31:17;6.43;;;5.83;;
3004;SDS011;1512;51.486;6.610;2022-08-14T20:39:43;5.60;;;5.00;;
3004;SDS011;1512;51.486;6.610;2022-08-14T20:43:55;6.93;;;6.23;;
3004;SDS011;1512;51.486;6.610;2022-08-14T20:48:25;6.50;;;5.70;;
3004;SDS011;1512;51.486;6.610;2022-08-14T20:52:37;8.07;;;5.97;;
3004;SDS011;1512;51.486;6.610;2022-08-14T20:56:49;8.70;;;6.20;;
3004;SDS011;1512;51.486;6.610;2022-08-14T21:01:13;6.30;;;5.70;;
3004;SDS011;1512;51.486;6.610;2022-08-14T21:05:23;7.20;;;5.90;;
3004;SDS011;1512;51.486;6.610;2022-08-14T21:09:48;10.20;;;6.53;;
3004;SDS011;1512;51.486;6.610;2022-08-14T21:13:56;6.53;;;5.83;;
3004;SDS011;1512;51.486;6.610;2022-08-14T21:18:07;8.20;;;6.57;;
3004;SDS011;1512;51.486;6.610;2022-08-14T21:22:19;6.70;;;6.10;;
3004;SDS011;1512;51.486;6.610;2022-08-14T21:26:28;7.03;;;5.93;;
3004;SDS011;1512;51.486;6.610;2022-08-14T21:30:39;6.90;;;5.57;;
3004;SDS011;1512;51.486;6.610;2022-08-14T21:34:52;5.90;;;5.30;;
3004;SDS011;1512;51.486;6.610;2022-08-14T21:39:01;7.27;;;6.57;;
3004;SDS011;1512;51.486;6.610;2022-08-14T21:43:11;6.90;;;6.30;;
3004;SDS011;1512;51.486;6.610;2022-08-14T21:47:24;7.77;;;6.80;;
3004;SDS011;1512;51.486;6.610;2022-08-14T21:51:34;6.90;;;6.20;;
3004;SDS011;1512;51.486;6.610;2022-08-14T21:55:46;6.00;;;5.40;;
3004;SDS011;1512;51.486;6.610;2022-08-14T21:59:57;7.80;;;6.70;;
3004;SDS011;1512;51.486;6.610;2022-08-14T22:04:10;6.83;;;5.87;;
3004;SDS011;1512;51.486;6.610;2022-08-14T22:08:20;5.90;;;5.40;;
3004;SDS011;1512;51.486;6.610;2022-08-14T22:12:32;7.33;;;5.87;;
3004;SDS011;1512;51.486;6.610;2022-08-14T22:16:43;6.40;;;5.80;;
3004;SDS011;1512;51.486;6.610;2022-08-14T22:20:53;7.20;;;6.50;;
3004;SDS011;1512;51.486;6.610;2022-08-14T22:25:02;6.83;;;6.20;;
3004;SDS011;1512;51.486;6.610;2022-08-14T22:29:13;8.13;;;6.65;;
3004;SDS011;1512;51.486;6.610;2022-08-14T22:33:26;7.37;;;6.60;;
3004;SDS011;1512;51.486;6.610;2022-08-14T22:37:37;8.00;;;6.87;;
3004;SDS011;1512;51.486;6.610;2022-08-14T22:41:48;6.50;;;5.90;;
3004;SDS011;1512;51.486;6.610;2022-08-14T22:45:58;6.67;;;6.00;;
3004;SDS011;1512;51.486;6.610;2022-08-14T22:50:08;10.30;;;6.77;;
3004;SDS011;1512;51.486;6.610;2022-08-14T22:54:19;7.40;;;6.70;;
3004;SDS011;1512;51.486;6.610;2022-08-14T22:58:30;7.07;;;6.37;;
3004;SDS011;1512;51.486;6.610;2022-08-14T23:02:41;7.30;;;6.60;;
3004;SDS011;1512;51.486;6.610;2022-08-14T23:06:50;8.03;;;6.83;;
3004;SDS011;1512;51.486;6.610;2022-08-14T23:11:02;7.57;;;6.50;;
3004;SDS011;1512;51.486;6.610;2022-08-14T23:15:14;9.17;;;6.57;;
3004;SDS011;1512;51.486;6.610;2022-08-14T23:19:25;7.70;;;7.00;;
3004;SDS011;1512;51.486;6.610;2022-08-14T23:23:36;7.83;;;7.13;;
3004;SDS011;1512;51.486;6.610;2022-08-14T23:27:46;7.30;;;6.60;;
3004;SDS011;1512;51.486;6.610;2022-08-14T23:31:57;8.40;;;7.60;;
3004;SDS011;1512;51.486;6.610;2022-08-14T23:36:05;7.77;;;6.57;;
3004;SDS011;1512;51.486;6.610;2022-08-14T23:40:17;7.90;;;7.20;;
3004;SDS011;1512;51.486;6.610;2022-08-14T23:44:27;7.33;;;6.30;;
3004;SDS011;1512;51.486;6.610;2022-08-14T23:48:39;8.13;;;7.43;;
3004;SDS011;1512;51.486;6.610;2022-08-14T23:52:50;7.80;;;6.67;;
3004;SDS011;1512;51.486;6.610;2022-08-14T23:57:01;9.80;;;6.20;;
